Time;durP1;ratioP1;P1;durP2;ratioP2;P2;SDS_P1;SDS_P2;PMS_P1;PMS_P2;Temp;Humidity;BMP_temperature;BMP_pressure;BME280_temperature;BME280_humidity;BME280_pressure;Samples;Min_cycle;Max_cycle;Signal;HPM_P1;HPM_P2
2022/03/21 00:00:30;;;;;;;;;;;11.10;99.90;;;;;;5055680;28;20043;-81
2022/03/21 00:02:57;;;;;;;;;;;11.20;99.90;;;;;;5055871;28;19964;-80
2022/03/21 00:05:23;;;;;;;;;;;11.20;99.90;;;;;;5054566;28;19909;-80
2022/03/21 00:07:49;;;;;;;;;;;11.20;99.90;;;;;;5055789;28;20280;-80
2022/03/21 00:10:15;;;;;;;;;;;11.20;99.90;;;;;;5055482;28;19915;-80
2022/03/21 00:12:41;;;;;;;;;;;11.30;99.90;;;;;;5055792;28;20008;-81
2022/03/21 00:15:11;;;;;;;;;;;11.30;99.90;;;;;;5055708;28;19909;-83
2022/03/21 00:17:40;;;;;;;;;;;11.20;99.90;;;;;;5055540;28;19958;-81
2022/03/21 00:20:08;;;;;;;;;;;11.30;99.90;;;;;;5055894;28;19912;-83
2022/03/21 00:22:34;;;;;;;;;;;11.20;99.90;;;;;;5055616;28;19913;-79
2022/03/21 00:24:59;;;;;;;;;;;11.10;99.90;;;;;;5055585;28;20422;-79
2022/03/21 00:27:25;;;;;;;;;;;11.10;99.90;;;;;;5055447;28;19908;-81
2022/03/21 00:29:50;;;;;;;;;;;11.30;99.90;;;;;;5055402;28;20451;-80
2022/03/21 00:32:18;;;;;;;;;;;11.40;99.90;;;;;;5055297;28;19956;-81
2022/03/21 00:34:43;;;;;;;;;;;11.40;99.90;;;;;;5055367;28;19909;-81
2022/03/21 00:37:12;;;;;;;;;;;11.40;99.90;;;;;;5054007;28;19915;-83
2022/03/21 00:39:39;;;;;;;;;;;11.40;99.90;;;;;;5054789;28;20296;-83
2022/03/21 00:42:04;;;;;;;;;;;11.40;99.90;;;;;;5055187;28;20383;-80
2022/03/21 00:44:30;;;;;;;;;;;11.30;99.90;;;;;;5055121;28;19909;-81
2022/03/21 00:46:56;;;;;;;;;;;11.30;99.90;;;;;;5055029;28;20340;-81
2022/03/21 00:49:21;;;;;;;;;;;11.30;99.90;;;;;;5055412;28;20015;-81
2022/03/21 00:51:47;;;;;;;;;;;11.20;99.90;;;;;;5055175;28;20368;-81
2022/03/21 00:54:12;;;;;;;;;;;11.20;99.90;;;;;;5055006;28;19915;-80
2022/03/21 00:56:38;;;;;;;;;;;11.20;99.90;;;;;;5054901;28;19931;-83
2022/03/21 00:59:04;;;;;;;;;;;11.20;99.90;;;;;;5054831;28;19916;-81
2022/03/21 01:01:30;;;;;;;;;;;11.20;99.90;;;;;;5054742;28;20401;-81
2022/03/21 01:03:55;;;;;;;;;;;11.20;99.90;;;;;;5054862;28;19956;-82
2022/03/21 01:06:22;;;;;;;;;;;11.10;99.90;;;;;;5054803;28;19908;-82
2022/03/21 01:08:47;;;;;;;;;;;11.10;99.90;;;;;;5054619;28;19909;-81
2022/03/21 01:11:13;;;;;;;;;;;11.10;99.90;;;;;;5054585;28;19916;-79
2022/03/21 01:13:41;;;;;;;;;;;11.10;99.90;;;;;;5054473;28;19920;-79
2022/03/21 01:16:07;;;;;;;;;;;11.00;99.90;;;;;;5054668;28;19909;-79
2022/03/21 01:18:33;;;;;;;;;;;11.00;99.90;;;;;;5054572;28;19970;-82
2022/03/21 01:20:59;;;;;;;;;;;11.00;99.90;;;;;;5054487;28;19952;-83
2022/03/21 01:23:24;;;;;;;;;;;10.90;99.90;;;;;;5053773;28;19913;-82
2022/03/21 01:25:50;;;;;;;;;;;10.80;99.90;;;;;;5054710;28;19908;-83
2022/03/21 01:28:15;;;;;;;;;;;10.80;99.90;;;;;;5054604;28;19919;-79
2022/03/21 01:30:41;;;;;;;;;;;10.80;99.90;;;;;;5054286;28;19909;-80
2022/03/21 01:33:07;;;;;;;;;;;10.80;99.90;;;;;;5054148;28;19963;-82
2022/03/21 01:35:33;;;;;;;;;;;10.80;99.90;;;;;;5054172;28;19913;-80
2022/03/21 01:37:58;;;;;;;;;;;10.80;99.90;;;;;;5053939;28;19917;-82
2022/03/21 01:40:24;;;;;;;;;;;10.80;99.90;;;;;;5054302;28;19960;-82
2022/03/21 01:42:50;;;;;;;;;;;10.70;99.90;;;;;;5054039;28;19909;-82
2022/03/21 01:45:16;;;;;;;;;;;10.70;99.90;;;;;;5054040;28;19982;-79
2022/03/21 01:47:42;;;;;;;;;;;10.70;99.90;;;;;;5053949;28;19909;-80
2022/03/21 01:50:08;;;;;;;;;;;10.60;99.90;;;;;;5054193;28;20386;-80
2022/03/21 01:52:36;;;;;;;;;;;10.50;99.90;;;;;;5053993;28;19924;-82
2022/03/21 01:57:47;;;;;;;;;;;10.50;99.90;;;;;;5054051;28;19916;-79
2022/03/21 02:00:12;;;;;;;;;;;10.40;99.90;;;;;;5052485;28;19930;-81
2022/03/21 02:02:39;;;;;;;;;;;10.50;99.90;;;;;;5053746;28;20373;-82
2022/03/21 02:05:04;;;;;;;;;;;10.40;99.90;;;;;;5053759;28;19990;-82
2022/03/21 02:07:30;;;;;;;;;;;10.40;99.90;;;;;;5053654;28;19909;-80
2022/03/21 02:09:56;;;;;;;;;;;10.40;99.90;;;;;;5053677;28;19913;-81
2022/03/21 02:12:22;;;;;;;;;;;10.40;99.90;;;;;;5053826;28;19943;-81
2022/03/21 02:14:48;;;;;;;;;;;10.30;99.90;;;;;;5053648;28;19909;-79
2022/03/21 02:17:18;;;;;;;;;;;10.30;99.90;;;;;;5053634;28;19916;-79
2022/03/21 02:19:45;;;;;;;;;;;10.30;99.90;;;;;;5054038;28;19909;-79
2022/03/21 02:22:31;;;;;;;;;;;10.20;99.90;;;;;;5053690;28;20323;-81
2022/03/21 02:25:01;;;;;;;;;;;10.20;99.90;;;;;;5053525;28;19913;-81
2022/03/21 02:27:28;;;;;;;;;;;10.10;99.90;;;;;;5053976;28;19913;-80
2022/03/21 02:29:55;;;;;;;;;;;10.00;99.90;;;;;;5053629;28;19913;-80
2022/03/21 02:32:21;;;;;;;;;;;10.00;99.90;;;;;;5053571;28;19971;-81
2022/03/21 02:34:48;;;;;;;;;;;10.00;99.90;;;;;;5056171;28;20415;-80
2022/03/21 02:37:15;;;;;;;;;;;9.90;99.90;;;;;;5057463;28;20300;-82
2022/03/21 02:39:42;;;;;;;;;;;9.90;99.90;;;;;;5055843;28;20025;-81
2022/03/21 02:42:08;;;;;;;;;;;10.00;99.90;;;;;;5057482;28;20304;-81
2022/03/21 02:44:37;;;;;;;;;;;9.90;99.90;;;;;;5056134;28;19927;-81
2022/03/21 02:47:04;;;;;;;;;;;9.90;99.90;;;;;;5056052;28;19915;-79
2022/03/21 02:49:29;;;;;;;;;;;9.80;99.90;;;;;;5057286;28;19909;-80
2022/03/21 02:51:55;;;;;;;;;;;9.80;99.90;;;;;;5057300;28;19935;-80
2022/03/21 02:54:22;;;;;;;;;;;9.80;99.90;;;;;;5057090;28;19971;-80
2022/03/21 02:56:48;;;;;;;;;;;9.80;99.90;;;;;;5057154;28;19940;-79
2022/03/21 02:59:15;;;;;;;;;;;9.80;99.90;;;;;;5057359;28;19909;-81
2022/03/21 03:01:42;;;;;;;;;;;9.80;99.90;;;;;;5057006;28;20003;-79
2022/03/21 03:04:08;;;;;;;;;;;9.80;99.90;;;;;;5057006;28;19909;-80
2022/03/21 03:06:34;;;;;;;;;;;9.70;99.90;;;;;;5057281;28;19920;-81
2022/03/21 03:08:59;;;;;;;;;;;9.70;99.90;;;;;;5057189;28;19909;-80
2022/03/21 03:11:25;;;;;;;;;;;9.70;99.90;;;;;;5056995;28;20008;-81
2022/03/21 03:13:51;;;;;;;;;;;9.60;99.90;;;;;;5056850;28;20276;-83
2022/03/21 03:16:17;;;;;;;;;;;9.60;99.90;;;;;;5056777;28;19916;-81
2022/03/21 03:18:44;;;;;;;;;;;9.60;99.90;;;;;;5056747;28;19943;-79
2022/03/21 03:21:10;;;;;;;;;;;9.50;99.90;;;;;;5056723;28;19954;-79
2022/03/21 03:23:37;;;;;;;;;;;9.50;99.90;;;;;;5055348;28;19913;-79
2022/03/21 03:26:04;;;;;;;;;;;9.50;99.90;;;;;;5056633;28;19909;-81
2022/03/21 03:28:31;;;;;;;;;;;9.50;99.90;;;;;;5056775;28;19909;-79
2022/03/21 03:30:58;;;;;;;;;;;9.50;99.90;;;;;;5056444;28;19913;-81
2022/03/21 03:33:24;;;;;;;;;;;9.50;99.90;;;;;;5056490;28;20447;-82
2022/03/21 03:35:49;;;;;;;;;;;9.40;99.90;;;;;;5056435;28;19936;-82
2022/03/21 03:38:16;;;;;;;;;;;9.40;99.90;;;;;;5056147;28;19924;-79
2022/03/21 03:40:43;;;;;;;;;;;9.40;99.90;;;;;;5056512;28;19909;-81
2022/03/21 03:43:09;;;;;;;;;;;9.40;99.90;;;;;;5056222;28;19908;-82
2022/03/21 03:45:35;;;;;;;;;;;9.30;99.90;;;;;;5054248;28;19908;-81
2022/03/21 03:48:02;;;;;;;;;;;9.30;99.90;;;;;;5056164;28;19909;-81
2022/03/21 03:50:28;;;;;;;;;;;9.30;99.90;;;;;;5056104;28;20258;-83
2022/03/21 03:52:53;;;;;;;;;;;9.20;99.90;;;;;;5056108;28;19913;-79
2022/03/21 03:55:19;;;;;;;;;;;9.20;99.90;;;;;;5055976;28;19913;-82
2022/03/21 03:57:45;;;;;;;;;;;9.20;99.90;;;;;;5055926;28;19908;-81
2022/03/21 04:00:11;;;;;;;;;;;9.20;99.90;;;;;;5055954;28;19945;-82
2022/03/21 04:05:21;;;;;;;;;;;9.20;99.90;;;;;;5055696;28;19916;-80
2022/03/21 04:07:47;;;;;;;;;;;9.20;99.90;;;;;;5055828;28;19909;-79
2022/03/21 04:10:13;;;;;;;;;;;9.20;99.90;;;;;;5055776;28;19908;-82
2022/03/21 04:12:39;;;;;;;;;;;9.20;99.90;;;;;;5056012;28;20262;-78
2022/03/21 04:15:04;;;;;;;;;;;9.10;99.90;;;;;;5054449;28;20419;-78
2022/03/21 04:17:30;;;;;;;;;;;9.10;99.90;;;;;;5055774;28;19948;-79
2022/03/21 04:19:55;;;;;;;;;;;9.10;99.90;;;;;;5055565;28;19913;-81
2022/03/21 04:22:21;;;;;;;;;;;9.10;99.90;;;;;;5055570;28;19916;-80
2022/03/21 04:24:47;;;;;;;;;;;9.10;99.90;;;;;;5055474;28;20288;-79
2022/03/21 04:27:12;;;;;;;;;;;9.10;99.90;;;;;;5055607;28;19909;-79
2022/03/21 04:29:38;;;;;;;;;;;9.00;99.90;;;;;;5055572;28;19909;-79
2022/03/21 04:32:04;;;;;;;;;;;9.00;99.90;;;;;;5055420;28;19919;-82
2022/03/21 04:34:29;;;;;;;;;;;9.00;99.90;;;;;;5055788;28;19970;-82
2022/03/21 04:36:55;;;;;;;;;;;9.00;99.90;;;;;;5055294;28;19909;-83
2022/03/21 04:39:20;;;;;;;;;;;9.00;99.90;;;;;;5055229;28;19956;-82
2022/03/21 04:41:46;;;;;;;;;;;9.00;99.90;;;;;;5055386;28;19962;-82
2022/03/21 04:44:11;;;;;;;;;;;9.00;99.90;;;;;;5055159;28;19909;-81
2022/03/21 04:46:37;;;;;;;;;;;8.90;99.90;;;;;;5055056;28;19963;-79
2022/03/21 04:49:03;;;;;;;;;;;8.90;99.90;;;;;;5055025;28;19909;-81
2022/03/21 04:51:28;;;;;;;;;;;8.90;99.90;;;;;;5055103;28;19908;-81
2022/03/21 04:53:54;;;;;;;;;;;9.00;99.90;;;;;;5054930;28;19955;-78
2022/03/21 04:56:20;;;;;;;;;;;9.00;99.90;;;;;;5054878;28;19971;-83
2022/03/21 04:58:45;;;;;;;;;;;8.90;99.90;;;;;;5052582;28;19909;-82
2022/03/21 05:01:11;;;;;;;;;;;9.00;99.90;;;;;;5055136;28;19909;-79
2022/03/21 05:03:36;;;;;;;;;;;8.90;99.90;;;;;;5054925;28;20376;-81
2022/03/21 05:06:03;;;;;;;;;;;8.90;99.90;;;;;;5054736;28;19908;-79
2022/03/21 05:08:29;;;;;;;;;;;8.80;99.90;;;;;;5054674;28;19916;-81
2022/03/21 05:10:56;;;;;;;;;;;8.80;99.90;;;;;;5054899;28;19909;-81
2022/03/21 05:13:22;;;;;;;;;;;8.80;99.90;;;;;;5054495;28;20001;-81
2022/03/21 05:15:47;;;;;;;;;;;8.70;99.90;;;;;;5054447;28;20288;-79
2022/03/21 05:18:22;;;;;;;;;;;8.70;99.90;;;;;;5153226;27;20012;-82
2022/03/21 05:20:48;;;;;;;;;;;8.60;99.90;;;;;;5152726;27;20356;-82
2022/03/21 05:31:26;;;;;;;;;;;8.60;99.90;;;;;;5152417;27;19914;-81
2022/03/21 05:36:35;;;;;;;;;;;8.40;99.90;;;;;;5152322;27;20007;-81
2022/03/21 05:39:01;;;;;;;;;;;8.50;99.90;;;;;;5152402;27;19907;-84
2022/03/21 05:41:27;;;;;;;;;;;8.40;99.90;;;;;;5152325;27;19907;-83
2022/03/21 05:43:52;;;;;;;;;;;8.40;99.90;;;;;;5152316;27;20428;-81
2022/03/21 05:46:18;;;;;;;;;;;8.30;99.90;;;;;;5152217;27;19908;-81
2022/03/21 05:49:02;;;;;;;;;;;8.30;99.90;;;;;;5152387;27;19907;-82
2022/03/21 05:51:32;;;;;;;;;;;8.30;99.90;;;;;;5152415;27;19908;-82
2022/03/21 05:53:59;;;;;;;;;;;8.40;99.90;;;;;;5128339;28;19914;-79
2022/03/21 05:56:25;;;;;;;;;;;8.40;99.90;;;;;;5131559;28;19911;-79
2022/03/21 05:58:52;;;;;;;;;;;8.30;99.90;;;;;;5131615;28;19915;-82
2022/03/21 06:01:22;;;;;;;;;;;8.30;99.90;;;;;;5131292;28;19907;-82
2022/03/21 06:03:49;;;;;;;;;;;8.30;99.90;;;;;;5131512;28;20328;-82
2022/03/21 06:06:15;;;;;;;;;;;8.20;99.90;;;;;;5131235;28;19908;-80
2022/03/21 06:08:41;;;;;;;;;;;8.30;99.90;;;;;;5131114;28;19915;-82
2022/03/21 06:11:08;;;;;;;;;;;8.30;99.90;;;;;;5131473;28;19912;-79
2022/03/21 06:13:35;;;;;;;;;;;8.30;99.90;;;;;;5131425;28;19992;-83
2022/03/21 06:16:03;;;;;;;;;;;8.30;99.90;;;;;;5130706;28;19922;-81
2022/03/21 06:18:35;;;;;;;;;;;8.30;99.90;;;;;;5112287;28;20375;-84
2022/03/21 06:21:02;;;;;;;;;;;8.40;99.90;;;;;;5130920;28;19907;-80
2022/03/21 06:23:28;;;;;;;;;;;8.30;99.90;;;;;;5130829;28;20325;-83
2022/03/21 06:25:55;;;;;;;;;;;8.30;99.90;;;;;;5130743;28;20264;-82
2022/03/21 06:28:24;;;;;;;;;;;8.20;99.90;;;;;;5106419;28;19956;-82
2022/03/21 06:30:53;;;;;;;;;;;8.30;99.90;;;;;;5116996;28;19907;-82
2022/03/21 06:33:22;;;;;;;;;;;8.50;99.90;;;;;;5117385;28;19908;-79
2022/03/21 06:35:48;;;;;;;;;;;8.70;99.90;;;;;;5117073;28;19908;-82
2022/03/21 06:38:14;;;;;;;;;;;8.70;99.90;;;;;;5116873;28;20261;-81
2022/03/21 06:40:42;;;;;;;;;;;8.70;99.90;;;;;;5116775;28;19914;-82
2022/03/21 06:43:07;;;;;;;;;;;8.70;99.90;;;;;;5116813;28;19914;-81
2022/03/21 06:45:33;;;;;;;;;;;8.70;99.90;;;;;;5116754;28;19908;-84
2022/03/21 06:47:58;;;;;;;;;;;8.70;99.90;;;;;;5116664;28;19915;-79
2022/03/21 06:50:25;;;;;;;;;;;8.90;99.90;;;;;;5116658;28;19934;-80
2022/03/21 06:52:52;;;;;;;;;;;9.10;99.90;;;;;;5116861;28;20248;-83
2022/03/21 06:55:17;;;;;;;;;;;9.20;99.90;;;;;;5098184;28;19953;-83
2022/03/21 06:57:43;;;;;;;;;;;9.70;99.90;;;;;;5116379;28;19912;-80
2022/03/21 07:00:09;;;;;;;;;;;9.90;99.90;;;;;;5116457;28;19912;-80
2022/03/21 07:02:34;;;;;;;;;;;9.90;99.90;;;;;;5116223;28;19915;-80
2022/03/21 07:05:00;;;;;;;;;;;10.40;99.90;;;;;;5116595;28;20265;-82
2022/03/21 07:07:26;;;;;;;;;;;10.60;99.90;;;;;;5116355;28;19908;-80
2022/03/21 07:09:52;;;;;;;;;;;10.90;99.90;;;;;;5116574;28;19932;-79
2022/03/21 07:12:19;;;;;;;;;;;11.10;99.90;;;;;;5116379;28;20003;-80
2022/03/21 07:14:45;;;;;;;;;;;11.30;99.90;;;;;;5116180;28;19950;-82
2022/03/21 07:17:10;;;;;;;;;;;11.20;99.90;;;;;;5097579;28;19920;-81
2022/03/21 07:19:37;;;;;;;;;;;11.40;99.90;;;;;;5116481;28;19908;-83
2022/03/21 07:22:03;;;;;;;;;;;11.60;99.90;;;;;;5115995;28;19924;-82
2022/03/21 07:24:28;;;;;;;;;;;11.70;99.90;;;;;;5115955;28;20384;-81
2022/03/21 07:26:54;;;;;;;;;;;11.70;99.90;;;;;;5115955;28;20372;-82
2022/03/21 07:29:19;;;;;;;;;;;11.70;99.90;;;;;;5116346;28;19908;-82
2022/03/21 07:31:45;;;;;;;;;;;11.90;99.90;;;;;;5097572;28;20355;-80
2022/03/21 07:34:10;;;;;;;;;;;11.90;99.90;;;;;;5115809;28;20276;-80
2022/03/21 07:36:36;;;;;;;;;;;12.00;99.90;;;;;;5115677;28;19919;-83
2022/03/21 07:39:03;;;;;;;;;;;11.90;99.90;;;;;;5115694;28;19994;-80
2022/03/21 07:41:29;;;;;;;;;;;12.10;99.90;;;;;;5115023;28;20421;-82
2022/03/21 07:43:56;;;;;;;;;;;12.10;99.90;;;;;;5115639;28;19908;-79
2022/03/21 07:49:06;;;;;;;;;;;12.50;99.90;;;;;;5115623;28;20374;-82
2022/03/21 07:51:32;;;;;;;;;;;12.70;99.90;;;;;;5115965;28;19912;-82
2022/03/21 07:53:57;;;;;;;;;;;13.00;99.90;;;;;;5097089;28;19947;-83
2022/03/21 07:56:23;;;;;;;;;;;13.40;99.90;;;;;;5115286;28;20299;-83
2022/03/21 07:58:49;;;;;;;;;;;14.00;99.90;;;;;;5097006;28;19994;-81
2022/03/21 08:01:15;;;;;;;;;;;14.60;99.90;;;;;;5115263;28;19908;-80
2022/03/21 08:03:41;;;;;;;;;;;14.90;99.90;;;;;;5096964;28;19915;-83
2022/03/21 08:06:10;;;;;;;;;;;15.50;99.90;;;;;;5115148;28;19907;-79
2022/03/21 08:08:37;;;;;;;;;;;16.00;99.90;;;;;;5115483;28;19947;-83
2022/03/21 08:11:05;;;;;;;;;;;16.30;99.90;;;;;;5115218;28;19919;-79
2022/03/21 08:13:33;;;;;;;;;;;16.70;99.90;;;;;;5115012;28;19955;-81
2022/03/21 08:15:59;;;;;;;;;;;16.90;99.90;;;;;;5114771;28;19908;-82
2022/03/21 08:18:25;;;;;;;;;;;17.10;99.90;;;;;;5115218;28;19986;-82
2022/03/21 08:20:51;;;;;;;;;;;17.30;99.90;;;;;;5115086;28;20360;-83
2022/03/21 08:23:17;;;;;;;;;;;17.00;99.40;;;;;;5114826;28;19908;-83
2022/03/21 08:25:45;;;;;;;;;;;17.20;99.80;;;;;;5114991;28;19911;-80
2022/03/21 08:28:11;;;;;;;;;;;17.50;99.00;;;;;;5114775;28;19908;-80
2022/03/21 08:30:38;;;;;;;;;;;17.90;97.90;;;;;;5114687;28;19934;-81
2022/03/21 08:33:06;;;;;;;;;;;18.40;97.20;;;;;;5114734;28;19908;-84
2022/03/21 08:35:32;;;;;;;;;;;18.80;96.20;;;;;;5114631;28;20006;-81
2022/03/21 08:37:58;;;;;;;;;;;18.70;95.40;;;;;;5114589;28;19912;-80
2022/03/21 08:40:23;;;;;;;;;;;18.70;96.00;;;;;;5114569;28;19956;-84
2022/03/21 08:42:49;;;;;;;;;;;18.50;94.80;;;;;;5096254;28;19911;-80
2022/03/21 08:45:15;;;;;;;;;;;18.20;95.10;;;;;;5114541;28;20069;-84
2022/03/21 08:47:41;;;;;;;;;;;18.30;95.10;;;;;;5096221;28;19908;-83
2022/03/21 08:50:08;;;;;;;;;;;18.50;94.30;;;;;;5114504;28;19915;-84
2022/03/21 08:52:34;;;;;;;;;;;18.80;94.10;;;;;;5095918;28;19908;-83
2022/03/21 08:54:59;;;;;;;;;;;18.70;93.50;;;;;;5114260;28;19961;-83
2022/03/21 08:57:25;;;;;;;;;;;18.20;94.20;;;;;;5114206;28;20393;-81
2022/03/21 08:59:52;;;;;;;;;;;19.10;93.10;;;;;;5114319;28;20271;-83
2022/03/21 09:02:18;;;;;;;;;;;18.80;93.30;;;;;;5114239;28;19991;-83
2022/03/21 09:04:44;;;;;;;;;;;19.70;92.80;;;;;;5095952;28;19908;-82
2022/03/21 09:07:10;;;;;;;;;;;19.50;91.90;;;;;;5114169;28;19915;-80
2022/03/21 09:09:36;;;;;;;;;;;19.70;92.00;;;;;;5114148;28;19920;-85
2022/03/21 09:12:01;;;;;;;;;;;19.90;91.40;;;;;;5114122;28;19911;-81
2022/03/21 09:14:27;;;;;;;;;;;20.50;90.80;;;;;;5114143;28;19907;-82
2022/03/21 09:16:53;;;;;;;;;;;20.10;90.10;;;;;;5113844;28;19920;-84
2022/03/21 09:19:19;;;;;;;;;;;20.30;90.50;;;;;;5114517;28;19915;-83
2022/03/21 09:21:46;;;;;;;;;;;20.30;88.90;;;;;;5114345;28;20394;-82
2022/03/21 09:24:11;;;;;;;;;;;20.90;88.40;;;;;;5114119;28;19930;-81
2022/03/21 09:26:37;;;;;;;;;;;21.50;86.40;;;;;;5095710;28;20380;-83
2022/03/21 09:29:03;;;;;;;;;;;21.60;85.70;;;;;;5113917;28;20002;-82
2022/03/21 09:31:29;;;;;;;;;;;21.50;84.50;;;;;;5114204;28;19908;-87
2022/03/21 09:33:55;;;;;;;;;;;22.00;83.20;;;;;;5095626;28;19908;-81
2022/03/21 09:36:21;;;;;;;;;;;22.20;83.00;;;;;;5095528;28;19939;-84
2022/03/21 09:38:47;;;;;;;;;;;22.70;81.80;;;;;;5095670;28;20375;-85
2022/03/21 09:41:13;;;;;;;;;;;23.00;79.80;;;;;;5113900;28;19918;-84
2022/03/21 09:43:40;;;;;;;;;;;23.80;77.30;;;;;;5113799;28;19931;-82
2022/03/21 09:46:07;;;;;;;;;;;23.80;77.20;;;;;;5113973;28;19908;-81
2022/03/21 09:48:34;;;;;;;;;;;24.30;74.70;;;;;;5113890;28;19911;-84
2022/03/21 09:51:01;;;;;;;;;;;24.60;72.80;;;;;;5113775;28;19991;-85
2022/03/21 09:53:28;;;;;;;;;;;24.80;72.40;;;;;;5113584;28;19908;-82
2022/03/21 09:55:54;;;;;;;;;;;24.30;70.30;;;;;;5095417;28;19914;-85
2022/03/21 09:58:20;;;;;;;;;;;23.20;70.80;;;;;;5113580;28;20288;-81
2022/03/21 10:00:47;;;;;;;;;;;23.40;72.50;;;;;;5113755;28;19908;-81
2022/03/21 10:03:13;;;;;;;;;;;23.70;72.40;;;;;;5096071;28;19953;-81
2022/03/21 10:05:46;;;;;;;;;;;23.60;71.80;;;;;;5099100;28;19908;-81
2022/03/21 10:08:13;;;;;;;;;;;24.10;72.40;;;;;;5117459;28;19967;-83
2022/03/21 10:10:39;;;;;;;;;;;24.10;71.30;;;;;;5117508;28;19908;-86
2022/03/21 10:13:09;;;;;;;;;;;24.00;71.70;;;;;;5117406;28;19908;-81
2022/03/21 10:15:38;;;;;;;;;;;23.90;69.80;;;;;;5117641;28;19951;-83
2022/03/21 10:18:08;;;;;;;;;;;24.00;71.50;;;;;;5116789;28;19927;-82
2022/03/21 10:20:34;;;;;;;;;;;24.30;70.80;;;;;;5098931;28;19908;-82
2022/03/21 10:23:14;;;;;;;;;;;24.60;69.60;;;;;;5117211;28;19907;-83
2022/03/21 10:25:40;;;;;;;;;;;24.40;68.80;;;;;;5117416;28;20325;-81
2022/03/21 10:28:05;;;;;;;;;;;25.80;68.70;;;;;;5117285;28;19908;-84
2022/03/21 10:30:31;;;;;;;;;;;27.40;66.10;;;;;;5117048;28;19951;-84
2022/03/21 10:32:58;;;;;;;;;;;27.80;62.90;;;;;;5117006;28;19908;-85
2022/03/21 10:35:31;;;;;;;;;;;27.70;61.60;;;;;;5116948;28;19946;-84
2022/03/21 10:38:00;;;;;;;;;;;27.90;60.80;;;;;;5117005;28;20007;-83
2022/03/21 10:40:27;;;;;;;;;;;28.90;60.00;;;;;;5116868;28;19908;-83
2022/03/21 10:42:57;;;;;;;;;;;29.90;57.90;;;;;;5116917;28;19961;-86
2022/03/21 10:45:24;;;;;;;;;;;30.20;56.40;;;;;;5098562;28;19915;-84
2022/03/21 10:47:51;;;;;;;;;;;30.10;55.00;;;;;;5116822;28;20014;-85
2022/03/21 10:50:26;;;;;;;;;;;30.90;54.70;;;;;;5116864;28;19908;-83
2022/03/21 10:53:04;;;;;;;;;;;31.40;53.40;;;;;;5116723;28;19953;-81
2022/03/21 10:55:30;;;;;;;;;;;31.50;54.20;;;;;;5116623;28;19955;-83
2022/03/21 10:57:56;;;;;;;;;;;32.50;50.70;;;;;;5116766;28;19962;-81
2022/03/21 11:00:22;;;;;;;;;;;32.70;51.30;;;;;;5116501;28;20360;-81
2022/03/21 11:02:57;;;;;;;;;;;32.30;50.10;;;;;;5098054;28;19933;-84
2022/03/21 11:05:23;;;;;;;;;;;31.40;50.90;;;;;;5116381;28;19911;-81
2022/03/21 11:07:50;;;;;;;;;;;31.70;51.00;;;;;;5116306;28;19919;-81
2022/03/21 11:10:16;;;;;;;;;;;31.00;50.80;;;;;;5116287;28;19957;-80
2022/03/21 11:12:42;;;;;;;;;;;31.40;51.40;;;;;;5116257;28;19908;-81
2022/03/21 11:15:08;;;;;;;;;;;31.60;51.30;;;;;;5116128;28;19946;-83
2022/03/21 11:17:34;;;;;;;;;;;31.20;50.40;;;;;;5115968;28;19920;-79
2022/03/21 11:20:06;;;;;;;;;;;31.10;50.50;;;;;;5116126;28;19908;-79
2022/03/21 11:22:36;;;;;;;;;;;30.90;50.60;;;;;;5097720;28;20391;-80
2022/03/21 11:25:03;;;;;;;;;;;31.10;49.50;;;;;;5115994;28;19907;-80
2022/03/21 11:27:31;;;;;;;;;;;31.20;50.70;;;;;;5116037;28;19912;-82
2022/03/21 11:30:15;;;;;;;;;;;32.20;49.90;;;;;;5097652;28;19908;-81
2022/03/21 11:32:50;;;;;;;;;;;31.80;49.50;;;;;;5115975;28;20006;-82
2022/03/21 11:35:23;;;;;;;;;;;31.10;49.70;;;;;;5116268;28;19908;-79
2022/03/21 11:37:50;;;;;;;;;;;31.20;49.70;;;;;;5115905;28;19915;-79
2022/03/21 11:40:29;;;;;;;;;;;31.40;50.20;;;;;;5115700;28;19915;-83
2022/03/21 11:43:14;;;;;;;;;;;32.20;48.70;;;;;;5097412;28;19955;-81
2022/03/21 11:45:39;;;;;;;;;;;31.80;48.70;;;;;;5115586;28;19915;-82
2022/03/21 11:48:17;;;;;;;;;;;32.60;49.10;;;;;;5115676;28;19912;-82
2022/03/21 11:50:43;;;;;;;;;;;32.00;47.70;;;;;;5115476;28;19919;-78
2022/03/21 11:53:10;;;;;;;;;;;31.10;49.30;;;;;;5115677;28;20021;-82
2022/03/21 11:55:45;;;;;;;;;;;31.30;50.20;;;;;;5115327;28;19932;-80
2022/03/21 11:58:23;;;;;;;;;;;32.60;48.40;;;;;;5115535;28;19908;-81
2022/03/21 12:01:07;;;;;;;;;;;32.00;48.50;;;;;;5115331;28;20417;-79
2022/03/21 12:03:33;;;;;;;;;;;31.70;47.80;;;;;;5115303;28;19912;-82
2022/03/21 12:06:19;;;;;;;;;;;32.50;47.40;;;;;;5115205;28;20364;-80
2022/03/21 12:08:45;;;;;;;;;;;33.10;47.50;;;;;;5115023;28;19919;-82
2022/03/21 12:11:31;;;;;;;;;;;33.70;46.20;;;;;;5115296;28;20417;-82
2022/03/21 12:14:19;;;;;;;;;;;33.50;47.40;;;;;;5114931;28;19969;-81
2022/03/21 12:16:45;;;;;;;;;;;33.70;47.90;;;;;;5114885;28;19919;-81
2022/03/21 12:19:11;;;;;;;;;;;34.40;46.40;;;;;;5114924;28;20011;-83
2022/03/21 12:21:37;;;;;;;;;;;34.80;45.80;;;;;;5114964;28;19957;-82
2022/03/21 12:24:16;;;;;;;;;;;34.40;45.90;;;;;;5114910;28;20059;-82
2022/03/21 12:26:48;;;;;;;;;;;34.50;46.10;;;;;;5114316;28;19912;-84
2022/03/21 12:29:33;;;;;;;;;;;34.20;46.30;;;;;;5115037;28;19915;-80
2022/03/21 12:32:19;;;;;;;;;;;34.00;46.10;;;;;;5114881;28;19960;-83
2022/03/21 12:34:44;;;;;;;;;;;33.00;45.90;;;;;;5096823;28;19942;-84
2022/03/21 12:37:25;;;;;;;;;;;33.30;46.80;;;;;;5096356;28;20010;-83
2022/03/21 12:39:53;;;;;;;;;;;33.70;46.40;;;;;;5114585;28;19908;-81
2022/03/21 12:42:19;;;;;;;;;;;34.70;45.30;;;;;;5096384;28;19908;-80
2022/03/21 12:44:45;;;;;;;;;;;36.90;44.60;;;;;;5114535;28;19907;-82
2022/03/21 12:47:10;;;;;;;;;;;36.30;44.30;;;;;;5114461;28;19912;-83
2022/03/21 12:49:52;;;;;;;;;;;36.70;43.10;;;;;;5114536;28;20282;-84
2022/03/21 12:52:30;;;;;;;;;;;36.20;43.70;;;;;;5114416;28;20371;-82
2022/03/21 12:54:57;;;;;;;;;;;36.30;44.60;;;;;;5096059;28;19908;-82
2022/03/21 12:57:22;;;;;;;;;;;36.00;44.50;;;;;;5114287;28;19998;-84
2022/03/21 12:59:48;;;;;;;;;;;35.90;43.00;;;;;;5114285;28;19939;-82
2022/03/21 13:02:23;;;;;;;;;;;36.30;43.60;;;;;;5114224;28;19998;-83
2022/03/21 13:10:34;;;;;;;;;;;36.70;42.20;;;;;;5114944;28;19999;-83
2022/03/21 13:13:01;;;;;;;;;;;36.20;43.60;;;;;;5114873;28;19908;-81
2022/03/21 13:15:27;;;;;;;;;;;37.20;43.30;;;;;;5096194;28;19951;-82
2022/03/21 13:17:57;;;;;;;;;;;36.60;42.70;;;;;;5113723;28;19924;-83
2022/03/21 13:22:49;;;;;;;;;;;37.20;42.90;;;;;;5114010;28;19908;-84
2022/03/21 13:25:25;;;;;;;;;;;35.80;43.40;;;;;;5095735;28;19930;-81
2022/03/21 13:27:51;;;;;;;;;;;35.70;43.30;;;;;;5114216;28;19911;-84
2022/03/21 13:30:16;;;;;;;;;;;34.80;43.60;;;;;;5095699;28;19908;-83
2022/03/21 13:32:43;;;;;;;;;;;33.70;42.60;;;;;;5095681;28;19996;-83
2022/03/21 13:35:11;;;;;;;;;;;35.00;44.40;;;;;;5113956;28;19955;-84
2022/03/21 13:37:36;;;;;;;;;;;35.20;43.90;;;;;;5114063;28;19908;-84
2022/03/21 13:40:08;;;;;;;;;;;33.50;44.80;;;;;;5117934;28;20084;-82
2022/03/21 13:42:34;;;;;;;;;;;34.50;44.10;;;;;;5118145;28;19980;-81
2022/03/21 13:45:05;;;;;;;;;;;36.00;43.60;;;;;;5118098;28;19949;-82
2022/03/21 13:47:31;;;;;;;;;;;36.30;43.10;;;;;;5099278;28;20379;-81
2022/03/21 13:50:02;;;;;;;;;;;36.80;43.20;;;;;;5118424;28;19969;-82
2022/03/21 13:52:44;;;;;;;;;;;33.80;44.90;;;;;;5117832;28;19935;-83
2022/03/21 13:55:14;;;;;;;;;;;28.50;48.10;;;;;;5117716;28;20007;-81
2022/03/21 13:57:44;;;;;;;;;;;31.00;47.60;;;;;;5117860;28;19908;-82
2022/03/21 14:00:13;;;;;;;;;;;31.80;47.60;;;;;;5117746;28;19950;-82
2022/03/21 14:02:42;;;;;;;;;;;33.00;46.30;;;;;;5117603;28;19957;-84
2022/03/21 14:05:20;;;;;;;;;;;33.90;45.80;;;;;;5117566;28;19953;-82
2022/03/21 14:07:48;;;;;;;;;;;34.80;44.70;;;;;;5117603;28;19912;-85
2022/03/21 14:10:14;;;;;;;;;;;34.50;44.00;;;;;;5099254;28;19908;-83
2022/03/21 14:12:41;;;;;;;;;;;34.60;44.10;;;;;;5117400;28;19914;-83
2022/03/21 14:15:06;;;;;;;;;;;34.60;44.00;;;;;;5117329;28;19908;-86
2022/03/21 14:17:32;;;;;;;;;;;34.10;44.50;;;;;;5117222;28;20022;-84
2022/03/21 14:19:58;;;;;;;;;;;33.60;44.30;;;;;;5099055;28;20420;-83
2022/03/21 14:22:23;;;;;;;;;;;31.50;45.00;;;;;;5117330;28;19951;-82
2022/03/21 14:24:49;;;;;;;;;;;31.50;45.40;;;;;;5098966;28;19961;-84
2022/03/21 14:27:14;;;;;;;;;;;31.20;45.50;;;;;;5117262;28;19918;-81
2022/03/21 14:29:40;;;;;;;;;;;30.40;46.90;;;;;;5117142;28;20299;-84
2022/03/21 14:32:07;;;;;;;;;;;30.70;46.30;;;;;;5098875;28;19914;-85
2022/03/21 14:34:33;;;;;;;;;;;30.60;46.00;;;;;;5117043;28;19911;-81
2022/03/21 14:36:59;;;;;;;;;;;29.50;46.70;;;;;;5117167;28;19908;-80
2022/03/21 14:39:25;;;;;;;;;;;28.60;47.40;;;;;;5098660;28;19915;-82
2022/03/21 14:41:51;;;;;;;;;;;29.50;47.30;;;;;;5116905;28;19908;-80
2022/03/21 14:44:18;;;;;;;;;;;28.50;48.10;;;;;;5117264;28;19915;-84
2022/03/21 14:46:44;;;;;;;;;;;29.50;47.40;;;;;;5098462;28;19915;-82
2022/03/21 14:49:10;;;;;;;;;;;29.70;47.40;;;;;;5097997;28;19915;-83